sensor_id;sensor_type;location;lat;lon;timestamp;temperature;humidity
68385;DHT22;55336;43.062;25.626;2024-02-26T00:00:28;9.40;99.90
68385;DHT22;55336;43.062;25.626;2024-02-26T00:02:56;9.40;99.90
68385;DHT22;55336;43.062;25.626;2024-02-26T00:05:22;9.20;99.90
68385;DHT22;55336;43.062;25.626;2024-02-26T00:07:48;9.10;99.90
68385;DHT22;55336;43.062;25.626;2024-02-26T00:10:14;9.10;99.90
68385;DHT22;55336;43.062;25.626;2024-02-26T00:12:40;9.40;99.90
68385;DHT22;55336;43.062;25.626;2024-02-26T00:15:06;9.50;99.90
68385;DHT22;55336;43.062;25.626;2024-02-26T00:17:32;9.60;99.90
68385;DHT22;55336;43.062;25.626;2024-02-26T00:19:58;9.70;99.90
68385;DHT22;55336;43.062;25.626;2024-02-26T00:22:24;9.60;99.90
68385;DHT22;55336;43.062;25.626;2024-02-26T00:24:49;9.50;99.90
68385;DHT22;55336;43.062;25.626;2024-02-26T00:27:15;9.50;99.90
68385;DHT22;55336;43.062;25.626;2024-02-26T00:29:41;9.70;99.90
68385;DHT22;55336;43.062;25.626;2024-02-26T00:32:06;10.10;99.90
68385;DHT22;55336;43.062;25.626;2024-02-26T00:34:32;10.30;99.90
68385;DHT22;55336;43.062;25.626;2024-02-26T00:36:58;10.50;99.90
68385;DHT22;55336;43.062;25.626;2024-02-26T00:39:23;10.50;99.90
68385;DHT22;55336;43.062;25.626;2024-02-26T00:41:49;10.80;99.90
68385;DHT22;55336;43.062;25.626;2024-02-26T00:44:17;11.00;99.90
68385;DHT22;55336;43.062;25.626;2024-02-26T00:46:42;11.10;99.90
68385;DHT22;55336;43.062;25.626;2024-02-26T00:49:08;11.10;99.90
68385;DHT22;55336;43.062;25.626;2024-02-26T00:51:34;11.20;99.90
68385;DHT22;55336;43.062;25.626;2024-02-26T00:53:59;11.20;99.90
68385;DHT22;55336;43.062;25.626;2024-02-26T00:56:25;11.10;99.90
68385;DHT22;55336;43.062;25.626;2024-02-26T00:58:51;11.10;99.90
68385;DHT22;55336;43.062;25.626;2024-02-26T01:01:17;11.00;99.90
68385;DHT22;55336;43.062;25.626;2024-02-26T01:03:42;10.70;99.90
68385;DHT22;55336;43.062;25.626;2024-02-26T01:06:08;10.50;99.90
68385;DHT22;55336;43.062;25.626;2024-02-26T01:08:35;10.20;99.90
68385;DHT22;55336;43.062;25.626;2024-02-26T01:11:01;10.00;99.90
68385;DHT22;55336;43.062;25.626;2024-02-26T01:13:26;9.80;99.90
68385;DHT22;55336;43.062;25.626;2024-02-26T01:15:52;9.60;99.90
68385;DHT22;55336;43.062;25.626;2024-02-26T01:18:18;9.50;99.90
68385;DHT22;55336;43.062;25.626;2024-02-26T01:20:43;9.30;99.90
68385;DHT22;55336;43.062;25.626;2024-02-26T01:23:09;9.20;99.90
68385;DHT22;55336;43.062;25.626;2024-02-26T01:25:35;9.10;99.90
68385;DHT22;55336;43.062;25.626;2024-02-26T01:28:01;8.90;99.90
68385;DHT22;55336;43.062;25.626;2024-02-26T01:30:27;8.80;99.90
68385;DHT22;55336;43.062;25.626;2024-02-26T01:32:52;8.70;99.90
68385;DHT22;55336;43.062;25.626;2024-02-26T01:35:18;8.70;99.90
68385;DHT22;55336;43.062;25.626;2024-02-26T01:37:44;8.60;99.90
68385;DHT22;55336;43.062;25.626;2024-02-26T01:40:10;8.60;99.90
68385;DHT22;55336;43.062;25.626;2024-02-26T01:42:39;8.50;99.90
68385;DHT22;55336;43.062;25.626;2024-02-26T01:45:09;8.40;99.90
68385;DHT22;55336;43.062;25.626;2024-02-26T01:47:38;8.40;99.90
68385;DHT22;55336;43.062;25.626;2024-02-26T01:50:03;8.30;99.90
68385;DHT22;55336;43.062;25.626;2024-02-26T01:52:30;8.30;99.90
68385;DHT22;55336;43.062;25.626;2024-02-26T01:54:55;8.20;99.90
68385;DHT22;55336;43.062;25.626;2024-02-26T01:57:21;8.20;99.90
68385;DHT22;55336;43.062;25.626;2024-02-26T01:59:47;8.10;99.90
68385;DHT22;55336;43.062;25.626;2024-02-26T02:02:13;8.10;99.90
68385;DHT22;55336;43.062;25.626;2024-02-26T02:04:40;8.00;99.90
68385;DHT22;55336;43.062;25.626;2024-02-26T02:07:06;7.90;99.90
68385;DHT22;55336;43.062;25.626;2024-02-26T02:09:31;7.90;99.90
68385;DHT22;55336;43.062;25.626;2024-02-26T02:11:57;7.80;99.90
68385;DHT22;55336;43.062;25.626;2024-02-26T02:14:24;7.70;99.90
68385;DHT22;55336;43.062;25.626;2024-02-26T02:16:50;7.70;99.90
68385;DHT22;55336;43.062;25.626;2024-02-26T02:19:16;7.60;99.90
68385;DHT22;55336;43.062;25.626;2024-02-26T02:21:41;7.50;99.90
68385;DHT22;55336;43.062;25.626;2024-02-26T02:24:07;7.50;99.90
68385;DHT22;55336;43.062;25.626;2024-02-26T02:26:32;7.40;99.90
68385;DHT22;55336;43.062;25.626;2024-02-26T02:28:58;7.40;99.90
68385;DHT22;55336;43.062;25.626;2024-02-26T02:31:24;7.40;99.90
68385;DHT22;55336;43.062;25.626;2024-02-26T02:33:50;7.30;99.90
68385;DHT22;55336;43.062;25.626;2024-02-26T02:36:15;7.20;99.90
68385;DHT22;55336;43.062;25.626;2024-02-26T02:38:50;7.30;99.90
68385;DHT22;55336;43.062;25.626;2024-02-26T02:41:16;7.40;99.90
68385;DHT22;55336;43.062;25.626;2024-02-26T02:43:42;7.40;99.90
68385;DHT22;55336;43.062;25.626;2024-02-26T02:46:07;7.40;99.90
68385;DHT22;55336;43.062;25.626;2024-02-26T02:48:33;7.40;99.90
68385;DHT22;55336;43.062;25.626;2024-02-26T02:50:59;7.40;99.90
68385;DHT22;55336;43.062;25.626;2024-02-26T02:53:24;7.40;99.90
68385;DHT22;55336;43.062;25.626;2024-02-26T02:55:50;7.40;99.90
68385;DHT22;55336;43.062;25.626;2024-02-26T02:58:16;7.50;99.90
68385;DHT22;55336;43.062;25.626;2024-02-26T03:00:41;7.50;99.90
68385;DHT22;55336;43.062;25.626;2024-02-26T03:03:07;7.50;99.90
68385;DHT22;55336;43.062;25.626;2024-02-26T03:05:33;7.50;99.90
68385;DHT22;55336;43.062;25.626;2024-02-26T03:07:59;7.50;99.90
68385;DHT22;55336;43.062;25.626;2024-02-26T03:10:25;7.60;99.90
68385;DHT22;55336;43.062;25.626;2024-02-26T03:12:50;7.60;99.90
68385;DHT22;55336;43.062;25.626;2024-02-26T03:15:16;7.60;99.90
68385;DHT22;55336;43.062;25.626;2024-02-26T03:17:42;7.70;99.90
68385;DHT22;55336;43.062;25.626;2024-02-26T03:20:08;7.70;99.90
68385;DHT22;55336;43.062;25.626;2024-02-26T03:22:35;7.70;99.90
68385;DHT22;55336;43.062;25.626;2024-02-26T03:25:00;7.70;99.90
68385;DHT22;55336;43.062;25.626;2024-02-26T03:27:26;7.70;99.90
68385;DHT22;55336;43.062;25.626;2024-02-26T03:29:52;7.80;99.90
68385;DHT22;55336;43.062;25.626;2024-02-26T03:32:18;7.80;99.90
68385;DHT22;55336;43.062;25.626;2024-02-26T03:34:44;7.80;99.90
68385;DHT22;55336;43.062;25.626;2024-02-26T03:37:09;7.90;99.90
68385;DHT22;55336;43.062;25.626;2024-02-26T03:39:36;7.90;99.90
68385;DHT22;55336;43.062;25.626;2024-02-26T03:42:03;7.90;99.90
68385;DHT22;55336;43.062;25.626;2024-02-26T03:44:28;7.90;99.90
68385;DHT22;55336;43.062;25.626;2024-02-26T03:46:54;7.90;99.90
68385;DHT22;55336;43.062;25.626;2024-02-26T03:49:21;7.90;99.90
68385;DHT22;55336;43.062;25.626;2024-02-26T03:51:48;8.10;99.90
68385;DHT22;55336;43.062;25.626;2024-02-26T03:54:13;8.50;99.90
68385;DHT22;55336;43.062;25.626;2024-02-26T03:56:39;9.30;99.90
68385;DHT22;55336;43.062;25.626;2024-02-26T03:59:05;9.60;99.90
68385;DHT22;55336;43.062;25.626;2024-02-26T04:01:30;10.00;99.90
68385;DHT22;55336;43.062;25.626;2024-02-26T04:03:57;10.00;99.90
68385;DHT22;55336;43.062;25.626;2024-02-26T04:06:23;10.00;99.90
68385;DHT22;55336;43.062;25.626;2024-02-26T04:08:49;10.00;99.90
68385;DHT22;55336;43.062;25.626;2024-02-26T04:11:15;10.20;99.90
68385;DHT22;55336;43.062;25.626;2024-02-26T04:13:43;10.30;99.90
68385;DHT22;55336;43.062;25.626;2024-02-26T04:16:11;10.50;99.90
68385;DHT22;55336;43.062;25.626;2024-02-26T04:18:37;10.70;99.90
68385;DHT22;55336;43.062;25.626;2024-02-26T04:21:03;11.10;99.90
68385;DHT22;55336;43.062;25.626;2024-02-26T04:23:30;11.20;99.90
68385;DHT22;55336;43.062;25.626;2024-02-26T04:25:56;11.20;99.90
68385;DHT22;55336;43.062;25.626;2024-02-26T04:28:22;10.90;99.90
68385;DHT22;55336;43.062;25.626;2024-02-26T04:30:47;10.80;99.90
68385;DHT22;55336;43.062;25.626;2024-02-26T04:33:13;10.80;99.90
68385;DHT22;55336;43.062;25.626;2024-02-26T04:35:39;10.60;99.90
68385;DHT22;55336;43.062;25.626;2024-02-26T04:38:05;10.70;99.90
68385;DHT22;55336;43.062;25.626;2024-02-26T04:40:30;10.70;99.90
68385;DHT22;55336;43.062;25.626;2024-02-26T04:42:56;10.80;99.90
68385;DHT22;55336;43.062;25.626;2024-02-26T04:45:22;11.00;99.90
68385;DHT22;55336;43.062;25.626;2024-02-26T04:47:48;10.40;99.90
68385;DHT22;55336;43.062;25.626;2024-02-26T04:50:14;10.50;99.90
68385;DHT22;55336;43.062;25.626;2024-02-26T04:52:40;10.40;99.90
68385;DHT22;55336;43.062;25.626;2024-02-26T04:55:06;10.40;99.90
68385;DHT22;55336;43.062;25.626;2024-02-26T04:57:32;10.40;99.90
68385;DHT22;55336;43.062;25.626;2024-02-26T04:59:58;10.60;99.90
68385;DHT22;55336;43.062;25.626;2024-02-26T05:02:24;10.70;99.90
68385;DHT22;55336;43.062;25.626;2024-02-26T05:04:50;10.80;99.90
68385;DHT22;55336;43.062;25.626;2024-02-26T05:07:15;10.70;99.90
68385;DHT22;55336;43.062;25.626;2024-02-26T05:09:43;10.60;99.90
68385;DHT22;55336;43.062;25.626;2024-02-26T05:12:09;10.60;99.90
68385;DHT22;55336;43.062;25.626;2024-02-26T05:14:35;10.60;99.90
68385;DHT22;55336;43.062;25.626;2024-02-26T05:17:00;10.40;99.90
68385;DHT22;55336;43.062;25.626;2024-02-26T05:19:26;10.20;99.90
68385;DHT22;55336;43.062;25.626;2024-02-26T05:21:52;10.10;99.90
68385;DHT22;55336;43.062;25.626;2024-02-26T05:24:18;10.00;99.90
68385;DHT22;55336;43.062;25.626;2024-02-26T05:26:47;9.90;99.90
68385;DHT22;55336;43.062;25.626;2024-02-26T05:29:13;9.80;99.90
68385;DHT22;55336;43.062;25.626;2024-02-26T05:31:39;9.80;99.90
68385;DHT22;55336;43.062;25.626;2024-02-26T05:34:05;9.80;99.90
68385;DHT22;55336;43.062;25.626;2024-02-26T05:36:30;9.70;99.90
68385;DHT22;55336;43.062;25.626;2024-02-26T05:38:59;9.70;99.90
68385;DHT22;55336;43.062;25.626;2024-02-26T05:41:25;9.70;99.90
68385;DHT22;55336;43.062;25.626;2024-02-26T05:43:52;9.60;99.90
68385;DHT22;55336;43.062;25.626;2024-02-26T05:46:18;9.70;99.90
68385;DHT22;55336;43.062;25.626;2024-02-26T05:48:47;9.70;99.90
68385;DHT22;55336;43.062;25.626;2024-02-26T05:51:13;9.60;99.90
68385;DHT22;55336;43.062;25.626;2024-02-26T05:53:38;9.60;99.90
68385;DHT22;55336;43.062;25.626;2024-02-26T05:56:05;9.60;99.90
68385;DHT22;55336;43.062;25.626;2024-02-26T05:58:31;9.60;99.90
68385;DHT22;55336;43.062;25.626;2024-02-26T06:00:57;9.60;99.90
68385;DHT22;55336;43.062;25.626;2024-02-26T06:03:22;9.60;99.90
68385;DHT22;55336;43.062;25.626;2024-02-26T06:05:48;9.70;99.90
68385;DHT22;55336;43.062;25.626;2024-02-26T06:08:14;9.70;99.90
68385;DHT22;55336;43.062;25.626;2024-02-26T06:10:39;9.80;99.90
68385;DHT22;55336;43.062;25.626;2024-02-26T06:13:05;9.80;99.90
68385;DHT22;55336;43.062;25.626;2024-02-26T06:15:31;9.90;99.90
68385;DHT22;55336;43.062;25.626;2024-02-26T06:17:57;10.00;99.90
68385;DHT22;55336;43.062;25.626;2024-02-26T06:20:22;10.10;99.90
68385;DHT22;55336;43.062;25.626;2024-02-26T06:22:48;10.20;99.90
68385;DHT22;55336;43.062;25.626;2024-02-26T06:25:14;10.30;99.90
68385;DHT22;55336;43.062;25.626;2024-02-26T06:27:39;10.40;99.90
68385;DHT22;55336;43.062;25.626;2024-02-26T06:30:05;10.50;99.90
68385;DHT22;55336;43.062;25.626;2024-02-26T06:32:31;10.70;99.90
68385;DHT22;55336;43.062;25.626;2024-02-26T06:34:57;10.80;99.90
68385;DHT22;55336;43.062;25.626;2024-02-26T06:37:23;11.00;99.90
68385;DHT22;55336;43.062;25.626;2024-02-26T06:39:48;11.10;99.90
68385;DHT22;55336;43.062;25.626;2024-02-26T06:42:14;11.20;99.90
68385;DHT22;55336;43.062;25.626;2024-02-26T06:44:40;11.40;99.90
68385;DHT22;55336;43.062;25.626;2024-02-26T06:47:05;11.50;99.90
68385;DHT22;55336;43.062;25.626;2024-02-26T06:49:31;11.60;99.90
68385;DHT22;55336;43.062;25.626;2024-02-26T06:51:57;11.70;99.90
68385;DHT22;55336;43.062;25.626;2024-02-26T06:54:23;11.90;99.90
68385;DHT22;55336;43.062;25.626;2024-02-26T06:56:48;12.00;99.90
68385;DHT22;55336;43.062;25.626;2024-02-26T06:59:14;12.10;99.90
68385;DHT22;55336;43.062;25.626;2024-02-26T07:01:41;12.30;99.90
68385;DHT22;55336;43.062;25.626;2024-02-26T07:04:06;12.40;99.90
68385;DHT22;55336;43.062;25.626;2024-02-26T07:06:32;12.60;99.90
68385;DHT22;55336;43.062;25.626;2024-02-26T07:08:58;12.80;99.90
68385;DHT22;55336;43.062;25.626;2024-02-26T07:11:24;13.10;99.90
68385;DHT22;55336;43.062;25.626;2024-02-26T07:13:49;13.30;99.90
68385;DHT22;55336;43.062;25.626;2024-02-26T07:16:15;13.50;99.90
68385;DHT22;55336;43.062;25.626;2024-02-26T07:18:41;13.70;99.90
68385;DHT22;55336;43.062;25.626;2024-02-26T07:21:09;13.90;99.90
68385;DHT22;55336;43.062;25.626;2024-02-26T07:23:34;14.20;99.90
68385;DHT22;55336;43.062;25.626;2024-02-26T07:26:00;14.50;99.90
68385;DHT22;55336;43.062;25.626;2024-02-26T07:28:26;14.80;99.90
68385;DHT22;55336;43.062;25.626;2024-02-26T07:30:51;15.10;99.90
68385;DHT22;55336;43.062;25.626;2024-02-26T07:33:17;15.20;99.90
68385;DHT22;55336;43.062;25.626;2024-02-26T07:35:43;15.40;99.90
68385;DHT22;55336;43.062;25.626;2024-02-26T07:38:09;15.60;99.90
68385;DHT22;55336;43.062;25.626;2024-02-26T07:40:34;15.80;99.90
68385;DHT22;55336;43.062;25.626;2024-02-26T07:43:00;16.00;99.90
68385;DHT22;55336;43.062;25.626;2024-02-26T07:45:26;16.20;99.90
68385;DHT22;55336;43.062;25.626;2024-02-26T07:47:52;16.40;99.90
68385;DHT22;55336;43.062;25.626;2024-02-26T07:50:17;16.60;99.90
68385;DHT22;55336;43.062;25.626;2024-02-26T07:52:43;16.90;99.90
68385;DHT22;55336;43.062;25.626;2024-02-26T07:55:10;17.10;99.90
68385;DHT22;55336;43.062;25.626;2024-02-26T07:57:35;17.30;99.90
68385;DHT22;55336;43.062;25.626;2024-02-26T08:00:02;17.50;99.90
68385;DHT22;55336;43.062;25.626;2024-02-26T08:02:28;17.80;99.90
68385;DHT22;55336;43.062;25.626;2024-02-26T08:04:53;18.10;99.90
68385;DHT22;55336;43.062;25.626;2024-02-26T08:07:19;18.50;99.90
68385;DHT22;55336;43.062;25.626;2024-02-26T08:09:46;19.00;99.90
68385;DHT22;55336;43.062;25.626;2024-02-26T08:12:12;19.60;92.00
68385;DHT22;55336;43.062;25.626;2024-02-26T08:14:38;20.40;88.60
68385;DHT22;55336;43.062;25.626;2024-02-26T08:17:04;21.10;80.20
68385;DHT22;55336;43.062;25.626;2024-02-26T08:19:29;21.40;74.30
68385;DHT22;55336;43.062;25.626;2024-02-26T08:21:55;21.70;70.80
68385;DHT22;55336;43.062;25.626;2024-02-26T08:24:21;22.00;69.50
68385;DHT22;55336;43.062;25.626;2024-02-26T08:26:47;22.30;64.40
68385;DHT22;55336;43.062;25.626;2024-02-26T08:29:13;22.40;63.80
68385;DHT22;55336;43.062;25.626;2024-02-26T08:31:39;22.70;62.00
68385;DHT22;55336;43.062;25.626;2024-02-26T08:34:04;22.80;58.90
68385;DHT22;55336;43.062;25.626;2024-02-26T08:36:31;22.50;57.20
68385;DHT22;55336;43.062;25.626;2024-02-26T08:38:57;22.70;57.60
68385;DHT22;55336;43.062;25.626;2024-02-26T08:41:23;22.50;56.20
68385;DHT22;55336;43.062;25.626;2024-02-26T08:43:49;22.40;54.30
68385;DHT22;55336;43.062;25.626;2024-02-26T08:46:15;22.60;56.20
68385;DHT22;55336;43.062;25.626;2024-02-26T08:48:40;22.30;53.00
68385;DHT22;55336;43.062;25.626;2024-02-26T08:51:07;22.40;53.80
68385;DHT22;55336;43.062;25.626;2024-02-26T08:53:32;22.10;51.30
68385;DHT22;55336;43.062;25.626;2024-02-26T08:56:00;21.90;54.50
68385;DHT22;55336;43.062;25.626;2024-02-26T08:58:29;21.80;55.10
68385;DHT22;55336;43.062;25.626;2024-02-26T09:00:55;21.90;55.00
68385;DHT22;55336;43.062;25.626;2024-02-26T09:03:21;21.80;55.30
68385;DHT22;55336;43.062;25.626;2024-02-26T09:05:47;21.80;56.30
68385;DHT22;55336;43.062;25.626;2024-02-26T09:08:14;21.70;55.70
68385;DHT22;55336;43.062;25.626;2024-02-26T09:10:40;21.40;54.90
68385;DHT22;55336;43.062;25.626;2024-02-26T09:13:06;21.00;55.00
68385;DHT22;55336;43.062;25.626;2024-02-26T09:15:32;20.70;55.90
68385;DHT22;55336;43.062;25.626;2024-02-26T09:17:57;20.40;55.50
68385;DHT22;55336;43.062;25.626;2024-02-26T09:20:23;20.40;56.10
68385;DHT22;55336;43.062;25.626;2024-02-26T09:22:52;20.50;56.50
68385;DHT22;55336;43.062;25.626;2024-02-26T09:25:19;20.70;56.20
68385;DHT22;55336;43.062;25.626;2024-02-26T09:27:44;20.90;55.10
68385;DHT22;55336;43.062;25.626;2024-02-26T09:30:11;20.80;52.60
68385;DHT22;55336;43.062;25.626;2024-02-26T09:32:37;20.50;53.00
68385;DHT22;55336;43.062;25.626;2024-02-26T09:35:03;20.30;53.10
68385;DHT22;55336;43.062;25.626;2024-02-26T09:37:28;20.00;53.50
68385;DHT22;55336;43.062;25.626;2024-02-26T09:39:54;19.90;54.70
68385;DHT22;55336;43.062;25.626;2024-02-26T09:42:20;20.30;54.00
68385;DHT22;55336;43.062;25.626;2024-02-26T09:44:48;21.10;53.00
68385;DHT22;55336;43.062;25.626;2024-02-26T09:47:17;21.50;51.40
68385;DHT22;55336;43.062;25.626;2024-02-26T09:53:12;22.50;49.30
68385;DHT22;55336;43.062;25.626;2024-02-26T09:55:39;22.90;48.20
68385;DHT22;55336;43.062;25.626;2024-02-26T09:58:05;23.00;47.50
68385;DHT22;55336;43.062;25.626;2024-02-26T10:00:36;23.40;45.20
68385;DHT22;55336;43.062;25.626;2024-02-26T10:03:06;23.70;45.70
68385;DHT22;55336;43.062;25.626;2024-02-26T10:05:35;24.20;43.60
68385;DHT22;55336;43.062;25.626;2024-02-26T10:08:02;24.00;42.90
68385;DHT22;55336;43.062;25.626;2024-02-26T10:10:29;24.20;43.30
68385;DHT22;55336;43.062;25.626;2024-02-26T10:12:57;23.90;41.20
68385;DHT22;55336;43.062;25.626;2024-02-26T10:15:24;24.00;39.60
68385;DHT22;55336;43.062;25.626;2024-02-26T10:17:49;23.80;37.50
68385;DHT22;55336;43.062;25.626;2024-02-26T10:20:19;23.60;38.80
68385;DHT22;55336;43.062;25.626;2024-02-26T10:22:47;22.80;39.80
68385;DHT22;55336;43.062;25.626;2024-02-26T10:25:13;22.90;38.90
68385;DHT22;55336;43.062;25.626;2024-02-26T10:30:38;22.80;40.00
68385;DHT22;55336;43.062;25.626;2024-02-26T10:33:38;23.00;39.60
68385;DHT22;55336;43.062;25.626;2024-02-26T10:36:04;23.50;38.70
68385;DHT22;55336;43.062;25.626;2024-02-26T10:38:32;24.00;37.90
68385;DHT22;55336;43.062;25.626;2024-02-26T10:40:58;24.00;36.80
68385;DHT22;55336;43.062;25.626;2024-02-26T10:43:25;24.40;36.40
68385;DHT22;55336;43.062;25.626;2024-02-26T10:45:51;24.80;35.90
68385;DHT22;55336;43.062;25.626;2024-02-26T10:48:16;23.20;35.30
68385;DHT22;55336;43.062;25.626;2024-02-26T10:50:43;23.40;36.60
68385;DHT22;55336;43.062;25.626;2024-02-26T10:53:20;24.00;36.50
68385;DHT22;55336;43.062;25.626;2024-02-26T10:55:52;24.10;38.90
68385;DHT22;55336;43.062;25.626;2024-02-26T10:58:18;24.60;33.20
68385;DHT22;55336;43.062;25.626;2024-02-26T11:00:44;24.50;33.90
68385;DHT22;55336;43.062;25.626;2024-02-26T11:03:13;24.60;32.30
68385;DHT22;55336;43.062;25.626;2024-02-26T11:05:41;24.00;33.80
68385;DHT22;55336;43.062;25.626;2024-02-26T11:08:07;24.50;33.90
68385;DHT22;55336;43.062;25.626;2024-02-26T11:10:33;24.90;32.40
68385;DHT22;55336;43.062;25.626;2024-02-26T11:12:59;24.50;31.80
68385;DHT22;55336;43.062;25.626;2024-02-26T11:15:25;24.70;32.80
68385;DHT22;55336;43.062;25.626;2024-02-26T11:17:52;24.40;32.20
68385;DHT22;55336;43.062;25.626;2024-02-26T11:20:18;24.10;32.40
68385;DHT22;55336;43.062;25.626;2024-02-26T11:22:44;23.90;33.50
68385;DHT22;55336;43.062;25.626;2024-02-26T11:25:10;24.60;31.10
68385;DHT22;55336;43.062;25.626;2024-02-26T11:28:00;25.30;32.90
68385;DHT22;55336;43.062;25.626;2024-02-26T11:30:24;25.10;30.50
68385;DHT22;55336;43.062;25.626;2024-02-26T11:32:51;25.00;31.00
68385;DHT22;55336;43.062;25.626;2024-02-26T11:35:17;25.20;31.80
68385;DHT22;55336;43.062;25.626;2024-02-26T11:37:56;25.50;29.00
68385;DHT22;55336;43.062;25.626;2024-02-26T11:40:23;25.50;29.40
68385;DHT22;55336;43.062;25.626;2024-02-26T11:42:50;25.20;29.80
68385;DHT22;55336;43.062;25.626;2024-02-26T11:48:01;24.60;30.20
68385;DHT22;55336;43.062;25.626;2024-02-26T11:50:38;25.00;30.40
68385;DHT22;55336;43.062;25.626;2024-02-26T11:55:45;25.20;31.30
68385;DHT22;55336;43.062;25.626;2024-02-26T11:58:11;25.30;30.10
68385;DHT22;55336;43.062;25.626;2024-02-26T12:00:36;25.30;30.10
68385;DHT22;55336;43.062;25.626;2024-02-26T12:03:05;25.60;29.40
68385;DHT22;55336;43.062;25.626;2024-02-26T12:05:34;25.40;28.10
68385;DHT22;55336;43.062;25.626;2024-02-26T12:08:03;25.10;29.20
68385;DHT22;55336;43.062;25.626;2024-02-26T12:13:10;25.00;28.70
68385;DHT22;55336;43.062;25.626;2024-02-26T12:15:38;25.10;28.60
68385;DHT22;55336;43.062;25.626;2024-02-26T12:18:05;25.20;28.30
68385;DHT22;55336;43.062;25.626;2024-02-26T12:20:31;24.60;29.60
68385;DHT22;55336;43.062;25.626;2024-02-26T12:22:57;24.00;30.50
68385;DHT22;55336;43.062;25.626;2024-02-26T12:25:24;24.00;30.20
68385;DHT22;55336;43.062;25.626;2024-02-26T12:27:50;24.40;31.20
68385;DHT22;55336;43.062;25.626;2024-02-26T12:30:16;24.40;29.40
68385;DHT22;55336;43.062;25.626;2024-02-26T12:32:43;24.10;30.00
68385;DHT22;55336;43.062;25.626;2024-02-26T12:35:09;23.90;30.60
68385;DHT22;55336;43.062;25.626;2024-02-26T12:37:35;24.20;30.00
68385;DHT22;55336;43.062;25.626;2024-02-26T12:40:04;23.80;29.70
68385;DHT22;55336;43.062;25.626;2024-02-26T12:42:32;24.20;30.90
68385;DHT22;55336;43.062;25.626;2024-02-26T12:44:58;24.40;30.90
68385;DHT22;55336;43.062;25.626;2024-02-26T12:47:24;24.20;29.40
68385;DHT22;55336;43.062;25.626;2024-02-26T12:49:50;24.30;29.70
68385;DHT22;55336;43.062;25.626;2024-02-26T12:52:16;24.50;29.80
68385;DHT22;55336;43.062;25.626;2024-02-26T12:54:41;24.60;27.90
68385;DHT22;55336;43.062;25.626;2024-02-26T12:57:08;24.50;29.70
68385;DHT22;55336;43.062;25.626;2024-02-26T12:59:34;24.40;29.10
68385;DHT22;55336;43.062;25.626;2024-02-26T13:02:00;24.70;28.50
68385;DHT22;55336;43.062;25.626;2024-02-26T13:04:28;24.60;30.40
68385;DHT22;55336;43.062;25.626;2024-02-26T13:06:54;24.20;30.20
68385;DHT22;55336;43.062;25.626;2024-02-26T13:09:20;24.30;30.60
68385;DHT22;55336;43.062;25.626;2024-02-26T13:11:53;24.60;30.10
68385;DHT22;55336;43.062;25.626;2024-02-26T13:14:19;25.00;29.50
68385;DHT22;55336;43.062;25.626;2024-02-26T13:16:54;24.60;28.60
68385;DHT22;55336;43.062;25.626;2024-02-26T13:19:19;24.40;29.60
68385;DHT22;55336;43.062;25.626;2024-02-26T13:21:45;24.10;29.50
68385;DHT22;55336;43.062;25.626;2024-02-26T13:24:12;23.80;29.70
68385;DHT22;55336;43.062;25.626;2024-02-26T13:26:38;23.50;30.30
68385;DHT22;55336;43.062;25.626;2024-02-26T13:29:04;23.60;30.30
68385;DHT22;55336;43.062;25.626;2024-02-26T13:31:30;23.50;30.80
68385;DHT22;55336;43.062;25.626;2024-02-26T13:33:55;23.00;30.30
68385;DHT22;55336;43.062;25.626;2024-02-26T13:36:22;22.70;31.20
68385;DHT22;55336;43.062;25.626;2024-02-26T13:38:53;22.80;32.90
68385;DHT22;55336;43.062;25.626;2024-02-26T13:41:20;22.80;31.80
68385;DHT22;55336;43.062;25.626;2024-02-26T13:43:46;22.80;32.20
68385;DHT22;55336;43.062;25.626;2024-02-26T13:46:12;22.80;31.70
68385;DHT22;55336;43.062;25.626;2024-02-26T13:48:39;22.70;32.50
68385;DHT22;55336;43.062;25.626;2024-02-26T13:51:05;22.50;33.20
68385;DHT22;55336;43.062;25.626;2024-02-26T13:53:31;22.30;33.70
68385;DHT22;55336;43.062;25.626;2024-02-26T13:55:56;22.00;34.20
68385;DHT22;55336;43.062;25.626;2024-02-26T13:58:24;21.80;34.50
68385;DHT22;55336;43.062;25.626;2024-02-26T14:00:50;21.60;34.70
68385;DHT22;55336;43.062;25.626;2024-02-26T14:03:16;21.50;35.30
68385;DHT22;55336;43.062;25.626;2024-02-26T14:05:41;21.30;35.00
68385;DHT22;55336;43.062;25.626;2024-02-26T14:08:07;21.20;35.40
68385;DHT22;55336;43.062;25.626;2024-02-26T14:10:33;21.00;36.10
68385;DHT22;55336;43.062;25.626;2024-02-26T14:12:59;20.90;37.20
68385;DHT22;55336;43.062;25.626;2024-02-26T14:15:25;20.70;40.80
68385;DHT22;55336;43.062;25.626;2024-02-26T14:17:51;20.60;39.90
68385;DHT22;55336;43.062;25.626;2024-02-26T14:20:24;20.50;39.20
68385;DHT22;55336;43.062;25.626;2024-02-26T14:22:50;20.40;40.20
68385;DHT22;55336;43.062;25.626;2024-02-26T14:25:19;20.30;39.80
68385;DHT22;55336;43.062;25.626;2024-02-26T14:27:46;20.10;39.90
68385;DHT22;55336;43.062;25.626;2024-02-26T14:30:11;20.00;39.70
68385;DHT22;55336;43.062;25.626;2024-02-26T14:32:37;19.90;39.80
68385;DHT22;55336;43.062;25.626;2024-02-26T14:35:06;19.80;40.20
68385;DHT22;55336;43.062;25.626;2024-02-26T14:37:32;19.70;40.60
68385;DHT22;55336;43.062;25.626;2024-02-26T14:39:58;19.60;41.00
68385;DHT22;55336;43.062;25.626;2024-02-26T14:42:24;19.50;41.50
68385;DHT22;55336;43.062;25.626;2024-02-26T14:44:51;19.40;41.90
68385;DHT22;55336;43.062;25.626;2024-02-26T14:47:17;19.20;42.30
68385;DHT22;55336;43.062;25.626;2024-02-26T14:49:42;19.20;42.20
68385;DHT22;55336;43.062;25.626;2024-02-26T14:52:08;19.20;42.40
68385;DHT22;55336;43.062;25.626;2024-02-26T14:54:34;19.10;43.70
68385;DHT22;55336;43.062;25.626;2024-02-26T14:57:04;19.10;44.20
68385;DHT22;55336;43.062;25.626;2024-02-26T14:59:30;19.00;44.20
68385;DHT22;55336;43.062;25.626;2024-02-26T15:01:57;19.10;44.40
68385;DHT22;55336;43.062;25.626;2024-02-26T15:04:23;19.20;43.80
68385;DHT22;55336;43.062;25.626;2024-02-26T15:06:48;19.30;43.60
68385;DHT22;55336;43.062;25.626;2024-02-26T15:09:14;19.10;45.00
68385;DHT22;55336;43.062;25.626;2024-02-26T15:11:40;19.00;45.40
68385;DHT22;55336;43.062;25.626;2024-02-26T15:14:07;18.80;45.70
68385;DHT22;55336;43.062;25.626;2024-02-26T15:16:33;18.70;45.70
68385;DHT22;55336;43.062;25.626;2024-02-26T15:18:58;18.50;47.70
68385;DHT22;55336;43.062;25.626;2024-02-26T15:21:24;18.40;47.10
68385;DHT22;55336;43.062;25.626;2024-02-26T15:23:50;18.20;47.70
68385;DHT22;55336;43.062;25.626;2024-02-26T15:26:17;18.10;47.70
68385;DHT22;55336;43.062;25.626;2024-02-26T15:28:44;17.90;49.40